createdAt,value
2019-04-29T00:05:03.580Z,9.3
2019-04-29T00:10:35.071Z,9.3
2019-04-29T00:15:57.948Z,9.2
2019-04-29T00:21:25.480Z,9.3
2019-04-29T00:26:53.691Z,9.2
2019-04-29T00:32:21.366Z,9.2
2019-04-29T00:37:49.591Z,9.2
2019-04-29T00:43:18.453Z,9.1
2019-04-29T00:48:45.323Z,9.1
2019-04-29T00:54:12.692Z,9.1
2019-04-29T00:59:40.615Z,9.1
2019-04-29T01:05:08.340Z,9.1
2019-04-29T01:10:36.788Z,9.1
2019-04-29T01:16:05.235Z,9.1
2019-04-29T01:21:32.598Z,9.1
2019-04-29T01:27:01.026Z,9.2
2019-04-29T01:32:28.402Z,9.2
2019-04-29T01:37:55.880Z,9.2
2019-04-29T01:43:24.074Z,9.2
2019-04-29T01:48:52.580Z,9.2
2019-04-29T01:54:20.901Z,9.3
2019-04-29T01:59:48.241Z,9.3
2019-04-29T02:05:16.636Z,9.3
2019-04-29T02:10:45.077Z,9.2
2019-04-29T02:16:13.468Z,9.3
2019-04-29T02:21:40.931Z,9.3
2019-04-29T02:27:09.220Z,9.3
2019-04-29T02:32:36.679Z,9.3
2019-04-29T02:38:05.053Z,9.3
2019-04-29T02:43:32.383Z,9.3
2019-04-29T02:48:59.879Z,9.3
2019-04-29T02:54:28.147Z,9.3
2019-04-29T02:59:56.964Z,9.2
2019-04-29T03:05:23.095Z,9.2
2019-04-29T03:10:50.754Z,9.2
2019-04-29T03:16:18.769Z,9.1
2019-04-29T03:21:47.150Z,9.1
2019-04-29T03:27:14.636Z,9
2019-04-29T03:32:42.808Z,9
2019-04-29T03:38:10.535Z,9
2019-04-29T03:43:37.558Z,9
2019-04-29T03:49:05.808Z,9
2019-04-29T03:54:34.248Z,9
2019-04-29T04:00:02.860Z,9
2019-04-29T04:05:28.902Z,9
2019-04-29T04:10:57.615Z,9
2019-04-29T04:16:24.613Z,8.9
2019-04-29T04:21:52.171Z,8.8
2019-04-29T04:27:19.274Z,8.7
2019-04-29T04:32:47.733Z,8.7
2019-04-29T04:38:16.017Z,8.7
2019-04-29T04:43:44.387Z,8.7
2019-04-29T04:49:15.653Z,8.7
2019-04-29T04:54:40.303Z,8.6
2019-04-29T05:00:07.439Z,8.5
2019-04-29T05:05:36.080Z,8.5
2019-04-29T05:11:02.824Z,8.5
2019-04-29T05:16:30.226Z,8.4
2019-04-29T05:21:57.473Z,8.3
2019-04-29T05:27:24.815Z,8.3
2019-04-29T05:32:52.158Z,8.3
2019-04-29T05:38:20.471Z,8.3
2019-04-29T05:43:48.808Z,8.3
2019-04-29T05:49:16.921Z,8.2
2019-04-29T05:54:44.868Z,8.2
2019-04-29T06:00:18.690Z,8.2
2019-04-29T06:05:39.773Z,8.2
2019-04-29T06:11:07.228Z,8.2
2019-04-29T06:16:34.461Z,8.2
2019-04-29T06:22:03.908Z,8.2
2019-04-29T06:27:33.379Z,8.3
2019-04-29T06:32:57.248Z,8.3
2019-04-29T06:38:30.288Z,8.3
2019-04-29T06:44:05.839Z,8.3
2019-04-29T06:49:21.994Z,8.3
2019-04-29T06:54:48.405Z,8.4
2019-04-29T07:00:17.476Z,8.4
2019-04-29T07:05:44.037Z,8.4
2019-04-29T07:11:11.753Z,8.5
2019-04-29T07:16:38.736Z,8.5
2019-04-29T07:22:07.069Z,8.6
2019-04-29T07:33:01.765Z,8.9
2019-04-29T07:38:40.458Z,9
2019-04-29T07:43:57.379Z,9.1
2019-04-29T07:49:26.008Z,9.2
2019-04-29T07:54:55.953Z,9.3
2019-04-29T08:00:22.297Z,9.4
2019-04-29T08:05:49.009Z,9.5
2019-04-29T08:11:16.510Z,9.6
2019-04-29T08:16:45.035Z,9.7
2019-04-29T08:22:16.432Z,9.9
2019-04-29T08:27:43.681Z,10
2019-04-29T08:33:11.882Z,10
2019-04-29T08:38:36.891Z,10.1
2019-04-29T08:44:15.604Z,10.1
2019-04-29T08:49:31.829Z,10.2
2019-04-29T08:54:59.946Z,10.3
2019-04-29T09:00:27.370Z,10.4
2019-04-29T09:06:04.983Z,10.5
2019-04-29T09:11:23.393Z,10.5
2019-04-29T09:16:54.173Z,10.6
2019-04-29T09:22:19.278Z,10.7
2019-04-29T09:27:46.857Z,10.7
2019-04-29T09:33:15.409Z,10.8
2019-04-29T09:38:42.896Z,11
2019-04-29T09:44:11.166Z,11.2
2019-04-29T09:49:38.068Z,11.3
2019-04-29T09:55:05.798Z,11.6
2019-04-29T10:00:36.215Z,11.9
2019-04-29T10:06:00.937Z,12.2
2019-04-29T10:11:28.588Z,12.5
2019-04-29T10:16:56.127Z,12.7
2019-04-29T10:22:24.990Z,12.9
2019-04-29T10:27:52.837Z,13
2019-04-29T10:33:23.004Z,13
2019-04-29T10:38:49.066Z,12.8
2019-04-29T10:44:17.663Z,12.8
2019-04-29T10:49:49.469Z,12.8
2019-04-29T10:55:14.174Z,13
2019-04-29T11:00:42.079Z,13.2
2019-04-29T11:06:09.667Z,13.4
2019-04-29T11:11:38.461Z,13.6
2019-04-29T11:17:15.806Z,13.7
2019-04-29T11:22:38.255Z,13.8
2019-04-29T11:28:02.654Z,14
2019-04-29T11:33:31.590Z,14.2
2019-04-29T11:39:08.937Z,14.3
2019-04-29T11:44:31.736Z,14.5
2019-04-29T11:49:58.989Z,14.6
2019-04-29T11:55:26.992Z,14.7
2019-04-29T12:00:56.033Z,14.8
2019-04-29T12:06:24.899Z,14.9
2019-04-29T12:11:53.834Z,15
2019-04-29T12:17:22.600Z,15
2019-04-29T12:22:51.642Z,15.2
2019-04-29T12:28:20.040Z,15.3
2019-04-29T12:33:47.462Z,15.4
2019-04-29T12:39:19.795Z,15.4
2019-04-29T12:44:45.748Z,15.4
2019-04-29T12:50:17.409Z,15.4
2019-04-29T12:55:47.188Z,15.4
2019-04-29T13:01:11.450Z,15.4
2019-04-29T13:06:40.694Z,15.5
2019-04-29T13:12:18.846Z,15.6
2019-04-29T13:18:03.010Z,15.7
2019-04-29T13:23:17.265Z,15.7
2019-04-29T13:28:47.012Z,15.7
2019-04-29T13:34:22.699Z,15.8
2019-04-29T13:39:39.566Z,15.8
2019-04-29T13:45:07.682Z,15.8
2019-04-29T13:50:38.633Z,15.9
2019-04-29T13:56:10.746Z,15.9
2019-04-29T14:01:31.222Z,16
2019-04-29T14:06:56.824Z,16
2019-04-29T14:12:47.583Z,16
2019-04-29T14:17:51.455Z,16
2019-04-29T14:23:20.548Z,16
2019-04-29T14:28:48.554Z,16
2019-04-29T14:34:20.155Z,16
2019-04-29T14:39:44.549Z,16
2019-04-29T14:45:12.569Z,16
2019-04-29T14:50:41.032Z,16
2019-04-29T15:07:07.026Z,16
2019-04-29T15:12:50.791Z,15.9
2019-04-29T15:23:33.713Z,15.9
2019-04-29T15:29:05.968Z,15.9
2019-04-29T15:34:29.771Z,15.9
2019-04-29T15:39:58.910Z,15.8
2019-04-29T15:45:31.815Z,15.8
2019-04-29T15:50:56.861Z,15.7
2019-04-29T16:01:54.055Z,15.7
2019-04-29T16:07:22.861Z,15.6
2019-04-29T16:12:51.192Z,15.6
2019-04-29T16:18:19.868Z,15.6
2019-04-29T16:23:48.305Z,15.5
2019-04-29T16:29:16.810Z,15.5
2019-04-29T16:34:47.008Z,15.5
2019-04-29T16:40:13.849Z,15.4
2019-04-29T16:45:44.047Z,15.3
2019-04-29T16:57:14.902Z,15.2
2019-04-29T17:02:19.509Z,15.1
2019-04-29T17:07:35.539Z,14.9
2019-04-29T17:13:03.555Z,14.8
2019-04-29T17:18:35.214Z,14.7
2019-04-29T17:23:59.181Z,14.6
2019-04-29T17:29:38.754Z,14.4
2019-04-29T17:34:59.164Z,14.3
2019-04-29T17:35:16.563Z,15.2
2019-04-29T17:51:22.487Z,14
2019-04-29T17:57:03.648Z,13.9
2019-04-29T18:02:21.895Z,13.8
2019-04-29T18:13:23.618Z,13.7
2019-04-29T18:18:48.704Z,13.6
2019-04-29T18:24:15.208Z,13.5
2019-04-29T18:29:43.079Z,13.4
2019-04-29T18:35:09.869Z,13.3
2019-04-29T18:40:46.826Z,13.2
2019-04-29T18:51:36.054Z,13
2019-04-29T18:57:05.827Z,12.9
2019-04-29T19:02:32.165Z,12.7
2019-04-29T19:08:11.177Z,12.7
2019-04-29T19:13:30.653Z,12.6
2019-04-29T19:19:01.388Z,12.5
2019-04-29T19:24:24.396Z,12.4
2019-04-29T19:29:52.209Z,12.4
2019-04-29T19:35:20.798Z,12.3
2019-04-29T19:40:49.519Z,12.2
2019-04-29T19:46:23.960Z,12
2019-04-29T19:51:47.266Z,11.8
2019-04-29T19:57:12.436Z,11.6
2019-04-29T20:02:44.874Z,11.5
2019-04-29T20:08:08.268Z,11.4
2019-04-29T20:13:39.919Z,11.3
2019-04-29T20:19:11.874Z,11.2
2019-04-29T20:24:31.009Z,11.1
2019-04-29T20:30:15.657Z,11
2019-04-29T20:35:28.207Z,10.8
2019-04-29T20:40:56.648Z,10.7
2019-04-29T20:46:26.281Z,10.6
2019-04-29T20:51:52.537Z,10.5
2019-04-29T20:57:21.785Z,10.3
2019-04-29T21:02:48.923Z,10.2
2019-04-29T21:08:19.163Z,10.1
2019-04-29T21:13:48.350Z,9.9
2019-04-29T21:19:11.850Z,9.8
2019-04-29T21:24:39.321Z,9.7
2019-04-29T21:30:07.735Z,9.7
2019-04-29T21:35:36.209Z,9.6
2019-04-29T21:41:03.612Z,9.5
2019-04-29T21:46:31.220Z,9.4
2019-04-29T21:51:59.419Z,9.4
2019-04-29T21:57:26.796Z,9.3
2019-04-29T22:02:55.448Z,9.3
2019-04-29T22:08:25.566Z,9.2
2019-04-29T22:13:49.935Z,9.1
2019-04-29T22:19:18.473Z,9
2019-04-29T22:24:46.729Z,8.9
2019-04-29T22:30:15.171Z,8.8
2019-04-29T22:35:49.530Z,8.8
2019-04-29T22:41:11.787Z,8.7
2019-04-29T22:46:39.978Z,8.6
2019-04-29T22:52:04.302Z,8.5
2019-04-29T22:57:31.860Z,8.5
2019-04-29T23:03:02.198Z,8.4
2019-04-29T23:08:29.689Z,8.3
2019-04-29T23:13:55.400Z,8.2
2019-04-29T23:19:21.865Z,8.2
2019-04-29T23:24:51.212Z,8.2
2019-04-29T23:30:17.941Z,8.2
2019-04-29T23:35:44.803Z,8.1
2019-04-29T23:41:13.189Z,8.1
2019-04-29T23:46:41.478Z,8.1
2019-04-29T23:52:18.633Z,8
2019-04-29T23:57:36.936Z,8
